Aviation Digital Data Service (ADDS)

Output produced by METARs form (2217 UTC 01 October 2016)
found at http://aviationweather.gov/adds/metars/
 
KAEX 012153Z 03004KT 9SM CLR 28/12 A3001 RMK AO2 SLP164 T02780122